Aérodrome :
LOGIN :

S'inscrire | Disclaimer

   EN    FR    IT 

 










Légende :    VFR   VFR Marginal   IFR   IFR Intensif   IFR Très Intensif
Visi : 
Plafond : 
>= 8 km
>= 3000ft
5 à 8 km
1000 à 3000 ft
1500m à 5 km
500 à 1000 ft
800 à 1500m
200 à 500 ft
< 800m
< 200 ft
Symboles :   Orages  Brouillard  Fortes neiges  Fortes précipitations  Vent > 20 kt
SIGMETs :   Divers  Orages  Givrage  Turbulence  Onde Orograph.  Cendres Volcan.






- Altitude de l'aérodrome : 194 ft
- Code IATA : LME


LFRM - Le Mans

DERNIER METAR :
  • 161930Z AUTO 21015KT 180V240 9999 OVC015 16/14 Q1007 TEMPO 21015G25KT 3500 RA BKN008 BKN015

METARs EXPIRÉS :
  • 161900Z AUTO 20013KT 170V230 9999 BKN013 OVC020 16/14 Q1007 TEMPO 21015G25KT 3500 RA BKN008 BKN015
  • 161830Z AUTO 19012KT 160V220 9999 BKN013 OVC019 15/14 Q1007 TEMPO 21015G25KT 3500 RA BKN008 BKN015
  • 161800Z AUTO 18010KT 150V210 9999 BKN011 OVC018 15/14 Q1007 TEMPO 21015G25KT 3500 RA BKN008 BKN015
  • 161730Z AUTO 19011G23KT 140V230 9999 OVC010 15/14 Q1007 TEMPO 3500 RA
  • 161700Z AUTO 19011KT 150V210 9999 OVC009 15/14 Q1007 TEMPO 21015G25KT 3500 RA

TAF TAF LFRM
Valide du 16 à 18h jusqu'au 17 à 18h UTC


161700Z 1618/1718 20010KT 9999 SCT012 BKN025
TEMPO 1618/1623 21015G25KT 3500 RA BKN008 BKN015
FM162300 24010KT 9999 SCT015
BECMG 1700/1703 18005KT
TEMPO 1712/1718 4000 SHRA BKN009 SCT020CB



MET'MAP, la Météo Aéronautique d'un coup d'oeil ! - Copyright ORBIFLY Décembre 2007 - Disclaimer

ORBIFLY MET'MAP TEAM :

Programmation & Développement : Alexandra Zaïnal
Conception & Développement : Baudouin d'Aumeries
Co-Programmation & Développement : Marc-Olivier Méhu
Soutien technique & logistique : Manuel Goepfert

Contact : metmap@orbifly.com




SOURCES & CREDITS :

   NOAA